South Daytona, FL

2:28 PM EDT on October 25, 2014 (GMT -0400)
South Daytona UBBB.us | Change Station
CLOSE
Current Station
Personal Weather Station
Location: South Daytona, FL
Elevation: 30 ft
Nearby Weather Stations

Elev 30 ft 29.15 °N, 81.00 °W | Updated 19 seconds ago

Clear
Clear
75.9 °F
Feels Like 78 °F
N
4.0
Wind Variable Wind from NW
Gusts 6.0 mph

Today
High -- | Low -- °F
--% Chance of Precip.
Yesterday
High -- | Low -- °F
Precip. -- in
7:31 AM 6:43 PM
Waxing Crescent, 4% visible
Pressure 29.97 in
Visibility 10.0 miles
Clouds Few 4500 ft
Heat Index 78 °F
Dew Point 60 °F
Humidity 58%
Rainfall 0.00 in
Snow Depth Not available.
UV 8 out of 12
Pollen 5.50 out of 12
Air Quality Not available.
Flu Activity Local Activity
METAR KDAB 251753Z 03010KT 10SM FEW045 26/14 A2997 RMK AO2 SLP148 T02610144 10261 20150 58012

More Conditions Fewer Conditions

Pressure 29.97 in
Visibility 10.0 miles
Clouds Few 4500 ft
Heat Index 78 °F
Dew Point 60 °F
Humidity 58%
Rainfall 0.00 in
Snow Depth Not available.
UV 8 out of 12
Pollen 5.50 out of 12
Air Quality Not available.
Flu Activity Local Activity
METAR KDAB 251753Z 03010KT 10SM FEW045 26/14 A2997 RMK AO2 SLP148 T02610144 10261 20150 58012

More Conditions Fewer Conditions

10-Day Weather Forecast

Almanac

Astronomy

Oct. 25, 2014 Rise Set
Actual Time 7:31 AM EDT 6:43 PM EDT
Civil Twilight 7:07 AM EDT 7:08 PM EDT
Nautical Twilight 6:39 AM EDT 7:35 PM EDT
Astronomical Twilight 6:12 AM EDT 8:03 PM EDT
Moon 9:03 AM EDT 8:12 PM EDT
Length of Visible Light 12h 00m
Length of Day
11h 12m
Tomorrow will be 1m 36s shorter.
Waxing Crescent, 4% of the Moon is Illuminated
Today
Waxing Crescent
Oct 30
First Quarter
Nov 6
Full
Nov 14
Last Quarter
Nov 22
New

Today's Extremes

State Highs State Lows

Community

WunderPhotos

Upload Photos

1,764,931 photos uploaded!

Nearby

Snow Depth

Station Depth Elevation
No new snow has been reported.

Earthquake Activity

City Distance Mag. Time & Date
No recent earthquake activity has been reported nearby.
Minimum magnitude displayed is 2.5.

Coastal Water Temperatures

Place Temperature
Trident Pier, FL 78.1 °F
Mayport (Bar Pilots Dock), FL 75.9 °F
Fernandina Beach, FL 73.0 °F
McKay Bay Entrance, FL 78.1 °F

Nearby Weather Stations